Time;durP1;ratioP1;P1;durP2;ratioP2;P2;SDS_P1;SDS_P2;PMS_P1;PMS_P2;Temp;Humidity;BMP_temperature;BMP_pressure;BME280_temperature;BME280_humidity;BME280_pressure;Samples;Min_cycle;Max_cycle;Signal;HPM_P1;HPM_P2
2022/03/03 00:01:56;;;;;;;21.17;9.98;;;;;;;-3.77;83.81;95723.25;4981862;28;20043;-72
2022/03/03 00:04:22;;;;;;;23.40;10.50;;;;;;;-3.92;83.49;95709.53;4982995;28;20050;-71
2022/03/03 00:06:47;;;;;;;19.40;10.43;;;;;;;-4.02;84.05;95715.72;4981697;28;20038;-71
2022/03/03 00:09:13;;;;;;;24.05;10.00;;;;;;;-4.08;85.23;95716.44;4980622;28;20039;-71
2022/03/03 00:11:39;;;;;;;19.77;9.85;;;;;;;-3.92;85.04;95714.69;4984229;28;20408;-71
2022/03/03 00:14:05;;;;;;;19.38;9.45;;;;;;;-4.04;85.11;95717.69;4985011;28;20136;-72
2022/03/03 00:16:30;;;;;;;22.50;10.65;;;;;;;-4.08;85.41;95716.44;4985217;28;20130;-71
2022/03/03 00:18:56;;;;;;;35.80;13.50;;;;;;;-4.02;85.65;95718.31;4988119;28;20034;-71
2022/03/03 00:21:22;;;;;;;30.60;11.88;;;;;;;-4.05;85.18;95721.22;4986635;28;20038;-72
2022/03/03 00:23:48;;;;;;;24.50;11.70;;;;;;;-4.08;84.18;95716.44;4976974;28;20555;-71
2022/03/03 00:26:13;;;;;;;25.27;11.65;;;;;;;-4.19;84.63;95720.19;4979542;28;20157;-71
2022/03/03 00:28:39;;;;;;;22.55;10.52;;;;;;;-4.16;84.85;95708.78;4970986;28;20114;-72
2022/03/03 00:31:05;;;;;;;21.50;10.07;;;;;;;-4.14;84.03;95711.97;4976923;28;20046;-71
2022/03/03 00:33:31;;;;;;;26.00;10.45;;;;;;;-4.12;84.73;95712.59;4984893;28;20096;-72
2022/03/03 00:35:56;;;;;;;21.52;9.85;;;;;;;-4.02;84.64;95710.59;4978580;28;20050;-72
2022/03/03 00:38:22;;;;;;;19.83;10.43;;;;;;;-4.10;84.26;95708.06;4981409;28;20050;-71
2022/03/03 00:40:47;;;;;;;21.90;9.32;;;;;;;-4.12;85.06;95710.03;4988232;28;20073;-71
2022/03/03 00:43:13;;;;;;;21.80;9.43;;;;;;;-4.14;84.14;95711.97;4988309;28;20034;-72
2022/03/03 00:45:39;;;;;;;23.48;9.73;;;;;;;-4.09;84.76;95714.03;4989353;28;20038;-71
2022/03/03 00:48:05;;;;;;;21.13;9.95;;;;;;;-4.07;84.44;95718.00;4985770;28;20043;-72
2022/03/03 00:50:31;;;;;;;26.73;10.50;;;;;;;-4.13;84.60;95718.69;4975150;28;20501;-72
2022/03/03 00:52:57;;;;;;;24.02;10.23;;;;;;;-4.32;85.33;95724.28;4980286;28;20046;-71
2022/03/03 00:55:22;;;;;;;20.58;9.60;;;;;;;-4.37;84.77;95728.19;4986750;28;20034;-72
2022/03/03 00:57:48;;;;;;;18.92;9.73;;;;;;;-4.14;84.66;95719.66;4990272;28;20137;-71
2022/03/03 01:00:14;;;;;;;22.00;9.93;;;;;;;-4.19;84.17;95720.19;4988968;28;20043;-71
2022/03/03 01:02:40;;;;;;;22.88;10.30;;;;;;;-4.21;84.92;95718.75;4987690;28;20034;-71
2022/03/03 01:05:06;;;;;;;24.17;10.30;;;;;;;-4.28;84.84;95715.28;4985399;28;20581;-71
2022/03/03 01:07:33;;;;;;;22.85;9.40;;;;;;;-4.28;84.78;95715.28;4989513;28;20042;-71
2022/03/03 01:09:58;;;;;;;18.73;9.32;;;;;;;-4.40;84.54;95713.09;4990037;28;20052;-71
2022/03/03 01:12:24;;;;;;;20.02;9.85;;;;;;;-4.44;85.12;95717.00;4988632;28;20042;-71
2022/03/03 01:14:50;;;;;;;15.73;9.00;;;;;;;-4.48;85.45;95710.59;4989362;28;20774;-71
2022/03/03 01:17:16;;;;;;;23.75;9.65;;;;;;;-4.43;85.96;95713.44;4988380;28;20050;-72
2022/03/03 01:19:42;;;;;;;23.23;10.05;;;;;;;-4.54;85.49;95706.13;4989371;28;20110;-71
2022/03/03 01:22:08;;;;;;;18.73;9.52;;;;;;;-4.53;85.71;95702.59;4987645;28;20049;-71
2022/03/03 01:24:33;;;;;;;22.45;9.40;;;;;;;-4.61;86.55;95700.06;4984414;28;20039;-71
2022/03/03 01:26:59;;;;;;;16.65;9.02;;;;;;;-4.68;86.55;95704.28;4988291;28;20043;-71
2022/03/03 01:29:25;;;;;;;17.55;8.65;;;;;;;-4.71;85.46;95701.09;4989333;28;20046;-73
2022/03/03 01:31:50;;;;;;;20.10;9.73;;;;;;;-4.72;86.10;95709.75;4987697;28;20100;-71
2022/03/03 01:34:16;;;;;;;17.73;9.25;;;;;;;-4.72;86.33;95699.47;4987845;28;20453;-71
2022/03/03 01:36:43;;;;;;;21.42;9.85;;;;;;;-4.76;85.72;95703.34;4989014;28;20393;-71
2022/03/03 01:39:09;;;;;;;18.42;9.02;;;;;;;-4.76;86.21;95705.91;4988453;28;20046;-71
2022/03/03 01:41:35;;;;;;;17.52;9.40;;;;;;;-4.82;85.83;95703.25;4978807;28;20142;-71
2022/03/03 01:44:01;;;;;;;16.10;8.60;;;;;;;-4.92;86.17;95690.59;4981805;28;20061;-71
2022/03/03 01:46:27;;;;;;;17.63;9.35;;;;;;;-4.93;87.00;95696.69;4985344;28;20038;-71
2022/03/03 01:48:52;;;;;;;20.25;9.13;;;;;;;-5.05;87.16;95697.06;4989740;28;20189;-71
2022/03/03 01:51:18;;;;;;;16.33;8.55;;;;;;;-5.13;87.61;95686.84;4985850;28;20047;-71
2022/03/03 01:53:44;;;;;;;18.67;9.50;;;;;;;-5.27;87.90;95685.78;4988965;28;20043;-71
2022/03/03 01:56:09;;;;;;;18.58;9.13;;;;;;;-5.20;87.64;95685.09;4974245;28;20046;-71
2022/03/03 01:58:37;;;;;;;21.38;9.43;;;;;;;-5.10;87.39;95678.81;4987897;28;20057;-71
2022/03/03 02:01:03;;;;;;;25.27;9.75;;;;;;;-5.11;86.99;95674.63;4989233;28;20060;-71
2022/03/03 02:03:28;;;;;;;18.85;9.35;;;;;;;-5.12;86.81;95660.19;4986771;28;20602;-71
2022/03/03 02:05:54;;;;;;;16.80;8.93;;;;;;;-5.26;87.80;95659.16;4988387;28;20041;-71
2022/03/03 02:08:20;;;;;;;22.20;10.45;;;;;;;-5.41;88.70;95659.03;4988880;28;20043;-71
2022/03/03 02:10:45;;;;;;;17.85;8.40;;;;;;;-5.45;88.42;95659.53;4985123;28;20046;-72
2022/03/03 02:13:11;;;;;;;20.88;9.57;;;;;;;-5.42;88.44;95652.28;4986201;28;20198;-72
2022/03/03 02:15:37;;;;;;;18.50;8.90;;;;;;;-5.41;88.31;95651.34;4988886;28;20049;-72
2022/03/03 02:18:03;;;;;;;18.08;8.73;;;;;;;-5.50;88.89;95649.78;4987708;28;20523;-71
2022/03/03 02:20:30;;;;;;;20.15;9.60;;;;;;;-5.59;89.12;95661.00;4988111;28;20526;-71
2022/03/03 02:22:56;;;;;;;16.75;8.70;;;;;;;-5.63;89.14;95654.59;4987388;28;20046;-72
2022/03/03 02:25:24;;;;;;;18.45;9.57;;;;;;;-5.57;89.17;95653.97;4986036;28;20034;-71
2022/03/03 02:27:50;;;;;;;21.45;9.75;;;;;;;-5.50;88.34;95654.91;4984775;28;20097;-71
2022/03/03 02:30:17;;;;;;;18.92;8.98;;;;;;;-5.62;89.69;95649.31;4991155;28;20420;-72
2022/03/03 02:32:44;;;;;;;20.85;8.60;;;;;;;-5.57;88.10;95651.41;4989049;28;20042;-71
2022/03/03 02:35:10;;;;;;;18.92;8.90;;;;;;;-5.60;88.79;95654.31;4991688;28;20045;-71
2022/03/03 02:37:41;;;;;;;16.77;8.60;;;;;;;-5.48;88.47;95652.97;4992148;28;20054;-71
2022/03/03 02:40:09;;;;;;;19.83;9.25;;;;;;;-5.54;87.21;95653.63;4989369;28;20649;-71
2022/03/03 02:42:35;;;;;;;19.08;8.60;;;;;;;-5.65;88.56;95661.69;4988760;28;20046;-71
2022/03/03 02:45:04;;;;;;;18.73;8.85;;;;;;;-5.67;88.90;95658.50;4988382;28;20152;-71
2022/03/03 02:47:30;;;;;;;19.10;9.10;;;;;;;-5.67;89.45;95648.22;4988926;28;20042;-71
2022/03/03 02:49:56;;;;;;;16.85;9.10;;;;;;;-5.66;88.91;95644.69;4985267;28;20046;-71
2022/03/03 02:52:22;;;;;;;18.98;8.35;;;;;;;-5.71;88.72;95636.69;4990555;28;20061;-71
2022/03/03 02:54:47;;;;;;;18.17;9.10;;;;;;;-5.79;89.41;95640.88;4988928;28;20114;-71
2022/03/03 02:59:57;;;;;;;19.13;8.48;;;;;;;-5.82;89.13;95645.53;4985350;28;20420;-71
2022/03/03 03:02:23;;;;;;;17.45;8.15;;;;;;;-5.94;89.32;95652.75;4989968;28;20046;-71
2022/03/03 03:04:48;;;;;;;19.80;8.68;;;;;;;-6.06;90.91;95648.94;4985892;28;20038;-71
2022/03/03 03:07:14;;;;;;;16.95;8.52;;;;;;;-5.98;89.67;95647.19;4990502;28;20474;-71
2022/03/03 03:09:40;;;;;;;17.15;9.05;;;;;;;-6.01;89.79;95651.84;4991717;28;20038;-71
2022/03/03 03:12:05;;;;;;;19.25;8.95;;;;;;;-5.97;90.37;95648.00;4988270;28;20046;-72
2022/03/03 03:14:31;;;;;;;16.40;8.38;;;;;;;-5.98;90.31;95657.44;4986155;28;20066;-71
2022/03/03 03:16:57;;;;;;;19.48;9.23;;;;;;;-5.98;89.86;95651.50;4991069;28;20432;-72
2022/03/03 03:19:22;;;;;;;19.60;8.88;;;;;;;-5.90;89.21;95654.03;4991810;28;20491;-72
2022/03/03 03:21:48;;;;;;;17.55;9.00;;;;;;;-6.00;88.93;95645.75;4986540;28;20121;-72
2022/03/03 03:24:14;;;;;;;15.52;8.43;;;;;;;-6.02;89.43;95645.94;4989273;28;20542;-71
2022/03/03 03:26:40;;;;;;;15.32;8.18;;;;;;;-6.10;90.08;95649.28;4985241;28;20045;-71
2022/03/03 03:29:05;;;;;;;19.30;8.13;;;;;;;-6.13;90.12;95649.59;4991113;28;20064;-71
2022/03/03 03:31:31;;;;;;;15.95;8.73;;;;;;;-6.11;89.64;95650.22;4986136;28;20050;-72
2022/03/03 03:33:57;;;;;;;18.65;9.13;;;;;;;-6.12;89.66;95645.28;4988817;28;20038;-71
2022/03/03 03:36:22;;;;;;;17.27;8.48;;;;;;;-6.15;90.62;95646.41;4991185;28;20038;-72
2022/03/03 03:38:48;;;;;;;17.42;8.20;;;;;;;-6.15;90.07;95641.28;4991204;28;20108;-72
2022/03/03 03:41:14;;;;;;;17.30;8.63;;;;;;;-6.08;89.94;95640.63;4988478;28;20488;-72
2022/03/03 03:43:39;;;;;;;18.88;8.23;;;;;;;-6.06;89.52;95633.56;4989087;28;20042;-72
2022/03/03 03:46:05;;;;;;;18.85;8.80;;;;;;;-6.15;89.28;95633.59;4989210;28;20050;-72
2022/03/03 03:48:31;;;;;;;18.35;8.63;;;;;;;-6.24;90.25;95632.00;4988894;28;20522;-72
2022/03/03 03:50:57;;;;;;;18.08;8.65;;;;;;;-6.31;90.24;95631.84;4988248;28;20049;-72
2022/03/03 03:53:23;;;;;;;24.73;9.50;;;;;;;-6.33;90.76;95630.41;4989432;28;20042;-72
2022/03/03 03:55:50;;;;;;;16.20;7.88;;;;;;;-6.29;90.46;95634.25;4978533;28;20100;-72
2022/03/03 03:58:16;;;;;;;17.65;8.82;;;;;;;-6.34;89.28;95631.38;4990702;28;20042;-72
2022/03/03 04:00:42;;;;;;;19.77;8.40;;;;;;;-6.31;89.96;95625.91;4988056;28;20050;-72
2022/03/03 04:03:07;;;;;;;16.98;8.25;;;;;;;-6.38;90.11;95615.50;4987441;28;20046;-72
2022/03/03 04:05:33;;;;;;;19.02;8.82;;;;;;;-6.43;90.84;95611.84;4985287;28;20100;-72
2022/03/03 04:07:58;;;;;;;16.65;8.30;;;;;;;-6.48;91.58;95609.75;4990443;28;20161;-72
2022/03/03 04:10:24;;;;;;;18.23;8.25;;;;;;;-6.46;91.42;95606.06;4990727;28;20045;-72
2022/03/03 04:12:50;;;;;;;16.02;7.93;;;;;;;-6.39;90.47;95603.69;4990177;28;20039;-72
2022/03/03 04:15:15;;;;;;;19.60;8.73;;;;;;;-6.40;90.44;95596.97;4987709;28;20042;-72
2022/03/03 04:17:42;;;;;;;16.85;8.23;;;;;;;-6.41;90.25;95599.69;4984780;28;20047;-72
2022/03/03 04:20:08;;;;;;;15.98;8.55;;;;;;;-6.52;91.46;95599.03;4988781;28;20070;-72
2022/03/03 04:22:35;;;;;;;21.35;8.90;;;;;;;-6.65;91.36;95603.81;4990088;28;20041;-72
2022/03/03 04:25:01;;;;;;;18.98;8.10;;;;;;;-6.56;91.08;95602.88;4979179;28;20401;-72
2022/03/03 04:27:27;;;;;;;17.75;8.50;;;;;;;-6.40;90.57;95601.28;4985497;28;20415;-72
2022/03/03 04:29:52;;;;;;;15.43;7.85;;;;;;;-6.46;89.96;95598.41;4988317;28;20038;-72
2022/03/03 04:32:18;;;;;;;15.30;7.82;;;;;;;-6.45;89.78;95596.63;4971411;28;20047;-72
2022/03/03 04:34:43;;;;;;;19.90;7.78;;;;;;;-6.36;89.90;95594.88;4982060;28;20070;-72
2022/03/03 04:37:09;;;;;;;18.73;7.75;;;;;;;-6.50;89.27;95598.88;4990990;28;20424;-72
2022/03/03 04:39:35;;;;;;;18.50;8.57;;;;;;;-6.49;90.20;95593.59;4989550;28;20043;-72
2022/03/03 04:42:00;;;;;;;17.05;8.30;;;;;;;-6.59;90.63;95598.09;4980442;28;20089;-72
2022/03/03 04:44:26;;;;;;;19.27;8.07;;;;;;;-6.62;90.96;95594.09;4988096;28;20042;-72
2022/03/03 04:46:53;;;;;;;15.13;7.75;;;;;;;-6.66;90.95;95586.88;4988741;28;20043;-72
2022/03/03 04:49:18;;;;;;;17.52;8.90;;;;;;;-6.69;91.63;95582.09;4989784;28;20042;-72
2022/03/03 04:51:44;;;;;;;19.23;8.15;;;;;;;-6.72;91.26;95582.38;4986249;28;20045;-72
2022/03/03 04:54:10;;;;;;;17.73;8.60;;;;;;;-6.84;91.72;95590.41;4987290;28;20042;-72
2022/03/03 04:56:37;;;;;;;23.23;9.48;;;;;;;-6.98;92.76;95589.25;4988543;28;20074;-72
2022/03/03 04:59:04;;;;;;;18.23;8.65;;;;;;;-6.80;92.28;95586.53;4989780;28;20050;-72
2022/03/03 05:01:29;;;;;;;19.85;8.45;;;;;;;-6.96;92.25;95592.44;4983754;28;20038;-72
2022/03/03 05:03:55;;;;;;;17.92;8.65;;;;;;;-7.03;93.83;95590.69;4988123;28;20057;-72
2022/03/03 05:06:20;;;;;;;16.98;8.77;;;;;;;-6.89;91.95;95592.63;4989171;28;20126;-72
2022/03/03 05:08:46;;;;;;;21.35;8.85;;;;;;;-6.81;91.58;95584.97;4987552;28;20046;-72
2022/03/03 05:11:11;;;;;;;17.10;8.30;;;;;;;-6.77;91.43;95590.53;4979426;28;20771;-72
2022/03/03 05:13:37;;;;;;;19.35;8.57;;;;;;;-6.69;91.65;95602.56;4981002;28;20121;-73
2022/03/03 05:16:03;;;;;;;19.77;8.75;;;;;;;-6.71;91.61;95594.22;4972421;28;20055;-73
2022/03/03 05:18:29;;;;;;;16.77;8.57;;;;;;;-6.75;91.58;95592.94;4989096;28;20269;-73
2022/03/03 05:20:55;;;;;;;21.13;8.18;;;;;;;-6.74;90.62;95594.56;4988508;28;20113;-72
2022/03/03 05:23:21;;;;;;;20.20;8.52;;;;;;;-6.71;90.92;95584.00;4987917;28;20129;-72
2022/03/03 05:25:47;;;;;;;19.25;8.90;;;;;;;-6.71;90.99;95589.13;4986967;28;20590;-72
2022/03/03 05:28:13;;;;;;;20.25;8.80;;;;;;;-6.79;90.95;95588.16;4988800;28;20041;-72
2022/03/03 05:30:38;;;;;;;19.67;8.27;;;;;;;-6.80;91.13;95573.75;4989837;28;20046;-72
2022/03/03 05:33:04;;;;;;;24.02;8.50;;;;;;;-6.73;91.04;95576.47;4987346;28;20411;-71
2022/03/03 05:35:30;;;;;;;24.25;7.43;;;;;;;-6.72;91.25;95577.28;4984067;28;20038;-71
2022/03/03 05:37:55;;;;;;;16.38;7.80;;;;;;;-6.79;91.44;95572.78;4989395;28;20057;-72
2022/03/03 05:40:21;;;;;;;25.00;8.80;;;;;;;-6.79;91.56;95562.56;4989382;28;20065;-72
2022/03/03 05:42:46;;;;;;;20.52;7.63;;;;;;;-6.74;91.74;95554.41;4986694;28;20046;-72
2022/03/03 05:45:12;;;;;;;17.70;9.02;;;;;;;-6.83;92.19;95556.16;4982868;28;20105;-72
2022/03/03 05:47:38;;;;;;;16.83;8.82;;;;;;;-6.84;91.84;95559.69;4975812;28;20046;-72
2022/03/03 05:50:05;;;;;;;16.30;8.32;;;;;;;-6.86;91.64;95560.81;4985336;28;20042;-72
2022/03/03 05:52:31;;;;;;;16.58;8.48;;;;;;;-6.87;91.83;95560.00;4986656;28;20050;-72
2022/03/03 05:54:57;;;;;;;20.52;8.90;;;;;;;-6.91;92.08;95561.28;4981179;28;20038;-72
2022/03/03 05:57:42;;;;;;;19.25;8.32;;;;;;;-7.03;92.93;95560.00;4989507;28;20073;-72
2022/03/03 06:00:17;;;;;;;18.05;8.43;;;;;;;-6.86;92.16;95559.03;4988720;28;20042;-72
2022/03/03 06:02:51;;;;;;;15.07;7.90;;;;;;;-6.81;91.03;95559.38;4984343;28;20456;-72
2022/03/03 06:05:19;;;;;;;21.42;8.88;;;;;;;-6.86;91.01;95546.25;4989931;28;20046;-72
2022/03/03 06:07:49;;;;;;;22.63;8.25;;;;;;;-6.90;91.87;95550.06;4993463;28;20046;-72
2022/03/03 06:10:24;;;;;;;14.75;7.65;;;;;;;-6.94;91.77;95555.69;4990708;28;20466;-72
2022/03/03 06:13:16;;;;;;;17.40;8.38;;;;;;;-6.83;91.83;95556.16;4992174;28;20050;-72
2022/03/03 06:15:45;;;;;;;19.00;8.95;;;;;;;-6.82;91.33;95552.66;4991933;28;20038;-72
2022/03/03 06:18:12;;;;;;;24.23;8.05;;;;;;;-6.87;91.24;95552.31;4984315;28;20077;-72
2022/03/03 06:20:38;;;;;;;18.02;8.60;;;;;;;-6.87;91.39;95554.88;4992484;28;20057;-72
2022/03/03 06:23:04;;;;;;;16.55;8.07;;;;;;;-6.76;91.88;95555.53;4989349;28;20045;-73
2022/03/03 06:25:30;;;;;;;19.65;8.45;;;;;;;-6.79;90.89;95557.44;4984042;28;20038;-70
2022/03/03 06:27:56;;;;;;;17.25;8.30;;;;;;;-6.87;91.74;95557.44;4988724;28;20467;-72
2022/03/03 06:30:22;;;;;;;16.33;7.57;;;;;;;-6.67;91.54;95559.69;4983424;28;20203;-70
2022/03/03 06:32:47;;;;;;;17.13;8.27;;;;;;;-6.60;91.05;95560.63;4991105;28;20038;-70
2022/03/03 06:35:13;;;;;;;17.58;8.77;;;;;;;-6.61;91.57;95553.91;4984558;28;20093;-70
2022/03/03 06:37:38;;;;;;;24.15;8.95;;;;;;;-6.48;91.32;95549.13;4988959;28;20055;-70
2022/03/03 06:40:04;;;;;;;44.42;8.90;;;;;;;-6.39;91.03;95536.28;4986022;28;20042;-70
2022/03/03 06:42:30;;;;;;;56.33;10.13;;;;;;;-6.37;91.24;95534.38;4985403;28;20496;-69
2022/03/03 06:44:56;;;;;;;89.15;11.75;;;;;;;-6.33;91.71;95526.19;4990884;28;20125;-70
2022/03/03 06:47:22;;;;;;;67.10;10.18;;;;;;;-6.25;92.00;95527.94;4992557;28;20495;-69
2022/03/03 06:49:49;;;;;;;51.13;10.20;;;;;;;-6.13;91.80;95529.19;4990728;28;20060;-70
2022/03/03 06:52:16;;;;;;;57.28;9.02;;;;;;;-6.09;91.42;95516.88;4991151;28;20043;-70
2022/03/03 06:54:46;;;;;;;40.95;9.30;;;;;;;-5.96;91.89;95517.09;4983921;28;20047;-70
2022/03/03 06:57:12;;;;;;;36.97;9.50;;;;;;;-5.97;91.21;95520.63;4990094;28;20096;-70
2022/03/03 06:59:38;;;;;;;33.63;9.80;;;;;;;-5.98;91.35;95523.38;4991271;28;20034;-72
2022/03/03 07:02:04;;;;;;;22.13;8.73;;;;;;;-5.95;92.25;95523.03;4988856;28;20073;-75
2022/03/03 07:04:33;;;;;;;23.20;9.95;;;;;;;-5.85;92.65;95518.50;4985038;28;20038;-71
2022/03/03 07:06:59;;;;;;;20.67;9.10;;;;;;;-5.79;93.05;95522.97;4979403;28;20035;-71
2022/03/03 07:09:25;;;;;;;19.38;9.10;;;;;;;-5.67;92.90;95525.16;4982585;28;20038;-70
2022/03/03 07:11:50;;;;;;;21.00;8.77;;;;;;;-5.48;93.18;95519.59;4982308;28;20076;-70
2022/03/03 07:14:18;;;;;;;22.48;8.98;;;;;;;-5.32;93.66;95516.16;4978781;28;20093;-70
2022/03/03 07:16:56;;;;;;;22.25;9.43;;;;;;;-5.23;92.99;95509.19;4981403;28;20093;-70
2022/03/03 07:19:37;;;;;;;20.67;8.57;;;;;;;-5.19;92.36;95513.03;4977825;28;20407;-71
2022/03/03 07:22:18;;;;;;;20.17;9.05;;;;;;;-5.16;91.88;95511.88;4981338;28;20038;-72
2022/03/03 07:25:02;;;;;;;19.15;9.07;;;;;;;-5.09;92.82;95503.31;4977801;28;20089;-71
2022/03/03 07:27:28;;;;;;;18.08;8.05;;;;;;;-5.05;93.02;95496.88;4979897;28;20038;-73
2022/03/03 07:30:06;;;;;;;18.65;8.68;;;;;;;-4.98;92.51;95501.34;4991011;28;20517;-70
2022/03/03 07:32:33;;;;;;;18.77;8.48;;;;;;;-4.89;93.11;95498.53;4988648;28;20038;-70
2022/03/03 07:35:05;;;;;;;16.38;8.20;;;;;;;-4.76;92.30;95497.16;4989848;28;20043;-71
2022/03/03 07:37:36;;;;;;;23.27;8.73;;;;;;;-4.71;92.78;95495.66;4991818;28;20101;-77
2022/03/03 07:40:08;;;;;;;17.40;8.50;;;;;;;-4.63;92.97;95488.84;4990966;28;20125;-71
2022/03/03 07:42:35;;;;;;;21.75;8.18;;;;;;;-4.54;92.23;95480.91;4990368;28;20404;-74
2022/03/03 07:45:03;;;;;;;18.58;8.10;;;;;;;-4.49;91.94;95477.00;4989570;28;20058;-71
2022/03/03 07:47:30;;;;;;;16.48;7.80;;;;;;;-4.30;92.33;95480.81;4976621;28;20456;-70
2022/03/03 07:49:56;;;;;;;16.55;8.07;;;;;;;-4.01;91.95;95480.84;4987984;28;20068;-71
2022/03/03 07:52:23;;;;;;;17.70;7.88;;;;;;;-3.53;89.64;95477.03;4989085;28;20069;-71
2022/03/03 07:54:48;;;;;;;18.27;7.55;;;;;;;-3.35;88.10;95485.13;4983642;28;20049;-76
2022/03/03 07:57:16;;;;;;;16.55;7.47;;;;;;;-3.37;88.03;95479.38;4990383;28;20415;-75
2022/03/03 07:59:47;;;;;;;15.43;7.57;;;;;;;-3.46;88.45;95477.91;4991190;28;20447;-77
2022/03/03 08:02:22;;;;;;;16.38;7.43;;;;;;;-3.34;88.88;95475.63;4991982;28;20041;-70
2022/03/03 08:04:50;;;;;;;18.08;7.10;;;;;;;-3.05;86.94;95479.06;4993936;28;20034;-78
2022/03/03 08:07:17;;;;;;;12.93;6.93;;;;;;;-2.90;85.39;95486.72;4980160;28;22347;-73
2022/03/03 08:09:49;;;;;;;12.68;6.30;;;;;;;-2.59;83.83;95485.59;4987680;28;20038;-71
2022/03/03 08:12:16;;;;;;;14.63;7.00;;;;;;;-2.24;82.44;95485.63;4990381;28;20046;-71
2022/03/03 08:14:42;;;;;;;13.93;6.80;;;;;;;-2.31;83.72;95491.53;4990591;28;20042;-72
2022/03/03 08:17:12;;;;;;;12.18;6.72;;;;;;;-2.27;83.22;95508.22;4987966;28;20558;-72
2022/03/03 08:19:38;;;;;;;13.68;7.20;;;;;;;-1.73;80.46;95508.50;4991388;28;20038;-74
2022/03/03 08:22:05;;;;;;;13.80;6.78;;;;;;;-1.98;81.95;95506.41;4988112;28;20046;-77
2022/03/03 08:24:34;;;;;;;18.90;7.55;;;;;;;-2.09;83.24;95499.19;4986830;28;20546;-72
2022/03/03 08:27:01;;;;;;;17.67;7.45;;;;;;;-2.05;83.52;95503.00;4987326;28;20530;-72
2022/03/03 08:29:27;;;;;;;12.63;6.38;;;;;;;-2.02;83.72;95499.25;4986107;28;20050;-72
2022/03/03 08:31:54;;;;;;;14.20;7.35;;;;;;;-1.86;82.42;95498.13;4990448;28;20049;-73
2022/03/03 08:34:35;;;;;;;13.50;6.70;;;;;;;-1.60;80.57;95498.22;4985223;28;20042;-70
2022/03/03 08:37:06;;;;;;;13.48;6.85;;;;;;;-1.47;79.89;95496.69;4988699;28;20058;-70
2022/03/03 08:39:38;;;;;;;13.05;6.97;;;;;;;-1.15;77.31;95486.63;4988983;28;20042;-71
2022/03/03 08:42:08;;;;;;;18.50;7.57;;;;;;;-0.95;76.23;95484.91;4986133;28;20035;-69
2022/03/03 08:44:36;;;;;;;14.18;7.15;;;;;;;-0.91;76.53;95486.06;4988431;28;20039;-69
2022/03/03 08:47:05;;;;;;;12.95;7.15;;;;;;;-0.96;77.23;95480.72;4984271;28;20125;-70
2022/03/03 08:49:37;;;;;;;14.57;7.70;;;;;;;-0.90;77.65;95482.50;4989097;28;20682;-70
2022/03/03 08:52:04;;;;;;;15.75;7.43;;;;;;;-0.88;77.70;95480.53;4988505;28;20046;-70
2022/03/03 08:54:30;;;;;;;17.63;7.88;;;;;;;-0.63;74.94;95482.53;4986926;28;20046;-70
2022/03/03 08:56:57;;;;;;;15.07;7.88;;;;;;;-0.32;73.99;95475.13;4988810;28;20089;-70
2022/03/03 08:59:25;;;;;;;17.13;7.40;;;;;;;-0.11;71.67;95468.94;4988428;28;20042;-70
2022/03/03 09:01:51;;;;;;;16.83;7.47;;;;;;;0.04;70.23;95472.06;4989648;28;20042;-70
2022/03/03 09:04:18;;;;;;;17.17;7.63;;;;;;;0.38;68.40;95472.75;4980567;28;20038;-70
2022/03/03 09:06:45;;;;;;;36.05;9.50;;;;;;;0.57;67.74;95470.28;4989319;28;20592;-71
2022/03/03 09:09:12;;;;;;;17.52;8.55;;;;;;;0.71;67.82;95466.59;4989694;28;20140;-71
2022/03/03 09:11:38;;;;;;;15.43;8.02;;;;;;;0.79;66.89;95456.00;4988252;28;20065;-71
2022/03/03 09:14:05;;;;;;;17.30;7.68;;;;;;;0.72;68.33;95452.66;4989719;28;20050;-71
2022/03/03 09:16:31;;;;;;;18.20;8.07;;;;;;;0.71;68.09;95450.28;4988828;28;20042;-70
2022/03/03 09:18:56;;;;;;;16.48;8.45;;;;;;;0.68;68.84;95443.72;4988131;28;20062;-71
2022/03/03 09:21:22;;;;;;;15.32;8.48;;;;;;;0.74;69.46;95439.50;4989007;28;20451;-71
2022/03/03 09:23:47;;;;;;;15.95;8.50;;;;;;;1.71;63.63;95433.94;4988945;28;20117;-71
2022/03/03 09:26:13;;;;;;;19.05;8.10;;;;;;;2.12;61.84;95424.72;4983882;28;20728;-70
2022/03/03 09:28:39;;;;;;;17.08;8.32;;;;;;;2.28;61.70;95432.94;4977884;28;20045;-70
2022/03/03 09:31:05;;;;;;;17.42;8.73;;;;;;;2.04;62.90;95432.78;4989658;28;20042;-70
2022/03/03 09:33:30;;;;;;;15.02;8.15;;;;;;;2.07;62.40;95437.56;4973895;28;20153;-71
2022/03/03 09:35:56;;;;;;;18.35;9.38;;;;;;;2.07;61.85;95435.75;4977980;28;20046;-70
2022/03/03 09:38:23;;;;;;;19.45;9.00;;;;;;;1.89;63.87;95441.72;4992065;28;20046;-71
2022/03/03 09:40:49;;;;;;;20.00;10.02;;;;;;;2.01;61.03;95438.41;4983508;28;20042;-70
2022/03/03 09:43:14;;;;;;;19.25;10.20;;;;;;;1.92;62.99;95444.91;4986496;28;20627;-71
2022/03/03 09:45:40;;;;;;;19.95;10.23;;;;;;;2.00;62.94;95442.03;4980605;28;20484;-75
2022/03/03 09:48:07;;;;;;;21.67;10.63;;;;;;;2.18;62.29;95444.59;4983031;28;20038;-71
2022/03/03 09:50:37;;;;;;;23.30;11.25;;;;;;;2.25;61.65;95434.94;4984601;28;20062;-71
2022/03/03 09:53:11;;;;;;;26.25;12.20;;;;;;;2.67;60.47;95436.00;4980881;28;20049;-72
2022/03/03 09:55:38;;;;;;;27.63;12.05;;;;;;;2.98;60.17;95431.59;4982169;28;20057;-69
2022/03/03 09:58:06;;;;;;;38.85;13.07;;;;;;;2.98;60.38;95429.00;4987780;28;20524;-70
2022/03/03 10:00:36;;;;;;;35.60;15.07;;;;;;;3.15;60.68;95431.72;4989351;28;20113;-70
2022/03/03 10:03:11;;;;;;;30.33;14.75;;;;;;;3.38;59.75;95436.19;4989022;28;20042;-70
2022/03/03 10:05:39;;;;;;;31.23;14.88;;;;;;;3.60;58.85;95434.59;4983694;28;20042;-74
2022/03/03 10:08:10;;;;;;;33.03;15.30;;;;;;;4.00;57.53;95427.88;4987883;28;20112;-70
2022/03/03 10:10:39;;;;;;;33.28;16.15;;;;;;;4.37;56.78;95437.19;4984756;28;20066;-68
2022/03/03 10:13:05;;;;;;;32.75;17.55;;;;;;;4.71;56.93;95437.28;4982454;28;20043;-68
2022/03/03 10:15:32;;;;;;;48.10;19.42;;;;;;;5.02;55.85;95433.41;4976601;28;20416;-71
2022/03/03 10:18:04;;;;;;;45.10;20.00;;;;;;;5.81;54.30;95432.50;4983751;28;20046;-72
2022/03/03 10:20:46;;;;;;;48.78;19.38;;;;;;;6.70;50.71;95420.22;4986731;28;20038;-70
2022/03/03 10:23:12;;;;;;;38.53;19.02;;;;;;;7.90;47.77;95426.13;4980743;28;20042;-69
2022/03/03 10:25:42;;;;;;;40.55;19.75;;;;;;;8.42;45.50;95421.91;4975362;28;20456;-70
2022/03/03 10:28:16;;;;;;;36.40;19.33;;;;;;;8.27;44.46;95419.22;4969564;28;20039;-70
2022/03/03 10:30:56;;;;;;;49.63;23.00;;;;;;;7.63;45.47;95421.78;4981416;28;20054;-69
2022/03/03 10:33:25;;;;;;;37.78;20.58;;;;;;;8.90;42.45;95410.50;4983725;28;20093;-69
2022/03/03 10:36:12;;;;;;;50.33;23.70;;;;;;;9.90;40.72;95414.38;4986600;28;20042;-69
2022/03/03 10:38:55;;;;;;;44.85;21.95;;;;;;;10.01;37.94;95417.75;4986129;28;20042;-69
2022/03/03 10:41:37;;;;;;;53.20;25.13;;;;;;;9.18;40.13;95412.63;4984618;28;20050;-68
2022/03/03 10:44:12;;;;;;;51.15;23.25;;;;;;;9.76;34.68;95416.78;4977708;28;20035;-68
2022/03/03 10:46:58;;;;;;;59.15;27.23;;;;;;;9.88;37.59;95406.78;4982925;28;20050;-69
2022/03/03 10:49:24;;;;;;;50.42;21.60;;;;;;;9.52;37.21;95409.47;4980331;28;20516;-70
2022/03/03 10:51:50;;;;;;;35.55;18.05;;;;;;;10.65;34.25;95404.91;4979658;28;20038;-70
2022/03/03 10:54:15;;;;;;;34.65;15.30;;;;;;;10.96;32.73;95405.53;4989952;28;20101;-71
2022/03/03 10:56:49;;;;;;;39.08;17.05;;;;;;;11.46;34.80;95401.97;4976341;28;20057;-69
2022/03/03 10:59:22;;;;;;;31.70;16.37;;;;;;;13.31;31.49;95389.94;4982958;28;20043;-70
2022/03/03 11:01:49;;;;;;;21.30;12.82;;;;;;;12.73;31.32;95382.34;4983217;28;20096;-74
2022/03/03 11:04:20;;;;;;;25.52;13.55;;;;;;;11.45;33.49;95380.13;4988362;28;20047;-70
2022/03/03 11:06:52;;;;;;;27.95;12.20;;;;;;;12.53;32.38;95371.03;4990638;28;20042;-69
2022/03/03 11:09:18;;;;;;;16.63;10.80;;;;;;;13.32;28.72;95375.66;4990480;28;20504;-73
2022/03/03 11:11:44;;;;;;;16.80;10.93;;;;;;;13.80;29.90;95379.88;4985297;28;20118;-70
2022/03/03 11:14:10;;;;;;;25.08;12.10;;;;;;;13.90;27.78;95368.31;4990359;28;20495;-70
2022/03/03 11:16:37;;;;;;;17.45;10.65;;;;;;;14.11;28.50;95357.38;4990703;28;20065;-72
2022/03/03 11:19:02;;;;;;;19.70;10.88;;;;;;;11.92;29.59;95373.31;4990392;28;20046;-71
2022/03/03 11:21:28;;;;;;;22.90;12.23;;;;;;;11.92;30.44;95357.50;4980925;28;20114;-70
2022/03/03 11:23:59;;;;;;;17.15;11.32;;;;;;;12.49;29.77;95364.75;4980842;28;20525;-70
2022/03/03 11:26:40;;;;;;;16.23;10.77;;;;;;;13.74;28.55;95359.13;4975286;28;20043;-70
2022/03/03 11:29:17;;;;;;;16.35;10.93;;;;;;;14.54;26.31;95346.41;4991338;28;20104;-75